Time;durP1;ratioP1;P1;durP2;ratioP2;P2;SDS_P1;SDS_P2;PMS_P1;PMS_P2;Temp;Humidity;BMP_temperature;BMP_pressure;BME280_temperature;BME280_humidity;BME280_pressure;Samples;Min_cycle;Max_cycle;Signal;HPM_P1;HPM_P2
2023/04/10 00:01:04;;;;;;;;;;;9.20;99.90;;;;;;5101399;28;19931;-69
2023/04/10 00:03:32;;;;;;;;;;;9.40;99.90;;;;;;5111506;28;19930;-68
2023/04/10 00:06:00;;;;;;;;;;;9.70;99.90;;;;;;5099205;28;19970;-69
2023/04/10 00:08:27;;;;;;;;;;;9.90;99.90;;;;;;5100299;28;19936;-68
2023/04/10 00:10:54;;;;;;;;;;;10.10;99.90;;;;;;5108463;28;20009;-68
2023/04/10 00:13:21;;;;;;;;;;;10.20;99.90;;;;;;5104129;27;19931;-69
2023/04/10 00:15:48;;;;;;;;;;;10.40;99.90;;;;;;5104801;27;20026;-69
2023/04/10 00:18:15;;;;;;;;;;;10.50;99.90;;;;;;5106979;28;19924;-69
2023/04/10 00:20:42;;;;;;;;;;;10.50;99.90;;;;;;5110102;27;20398;-69
2023/04/10 00:23:10;;;;;;;;;;;10.70;99.90;;;;;;5108079;28;19967;-69
2023/04/10 00:25:37;;;;;;;;;;;10.50;99.90;;;;;;5112017;28;19932;-69
2023/04/10 00:28:03;;;;;;;;;;;10.50;99.90;;;;;;5113074;28;20023;-70
2023/04/10 00:30:30;;;;;;;;;;;10.40;99.90;;;;;;5104853;27;22140;-69
2023/04/10 00:32:57;;;;;;;;;;;10.40;99.90;;;;;;5106986;28;19928;-69
2023/04/10 00:35:23;;;;;;;;;;;10.40;99.90;;;;;;5111388;28;20438;-69
2023/04/10 00:37:51;;;;;;;;;;;10.40;99.90;;;;;;5097635;28;20466;-69
2023/04/10 00:40:19;;;;;;;;;;;10.40;99.90;;;;;;5103725;28;19924;-69
2023/04/10 00:42:45;;;;;;;;;;;10.40;99.90;;;;;;5110787;28;20385;-69
2023/04/10 00:45:12;;;;;;;;;;;10.30;99.90;;;;;;5111532;28;20458;-69
2023/04/10 00:47:39;;;;;;;;;;;10.30;99.90;;;;;;5111026;28;19924;-69
2023/04/10 00:50:06;;;;;;;;;;;10.30;99.90;;;;;;5108376;27;19923;-69
2023/04/10 00:52:33;;;;;;;;;;;10.10;99.90;;;;;;5108706;28;19924;-69
2023/04/10 00:55:00;;;;;;;;;;;10.10;99.90;;;;;;5104543;28;19934;-69
2023/04/10 00:57:28;;;;;;;;;;;10.30;99.90;;;;;;5106462;27;20306;-70
2023/04/10 00:59:55;;;;;;;;;;;10.00;99.90;;;;;;5099427;28;19935;-69
2023/04/10 01:02:22;;;;;;;;;;;10.10;99.90;;;;;;5103255;28;19963;-69
2023/04/10 01:04:49;;;;;;;;;;;10.30;99.90;;;;;;5101807;27;20030;-70
2023/04/10 01:07:18;;;;;;;;;;;10.20;99.90;;;;;;5109781;28;20010;-70
2023/04/10 01:09:48;;;;;;;;;;;10.20;99.90;;;;;;5105936;28;20371;-70
2023/04/10 01:12:29;;;;;;;;;;;10.40;99.90;;;;;;5108490;28;19928;-69
2023/04/10 01:15:00;;;;;;;;;;;10.50;99.90;;;;;;5107674;27;19984;-70
2023/04/10 01:17:31;;;;;;;;;;;10.30;99.90;;;;;;5111466;27;20286;-71
2023/04/10 01:20:00;;;;;;;;;;;10.30;99.90;;;;;;5107673;28;19934;-70
2023/04/10 01:22:28;;;;;;;;;;;10.40;99.90;;;;;;5107450;27;19923;-69
2023/04/10 01:25:01;;;;;;;;;;;10.40;99.90;;;;;;5109438;28;19924;-71
2023/04/10 01:27:36;;;;;;;;;;;10.20;99.90;;;;;;5101527;28;19971;-70
2023/04/10 01:30:06;;;;;;;;;;;10.10;99.90;;;;;;5103079;28;20454;-69
2023/04/10 01:32:34;;;;;;;;;;;10.10;99.90;;;;;;5109003;28;19924;-70
2023/04/10 01:35:05;;;;;;;;;;;10.20;99.90;;;;;;5106194;28;19932;-69
2023/04/10 01:37:34;;;;;;;;;;;10.10;99.90;;;;;;5100514;28;19923;-70
2023/04/10 01:40:02;;;;;;;;;;;10.10;99.90;;;;;;5103370;28;19924;-70
2023/04/10 01:42:31;;;;;;;;;;;10.10;99.90;;;;;;5109411;28;19924;-70
2023/04/10 01:44:59;;;;;;;;;;;10.10;99.90;;;;;;5101847;28;20022;-69
2023/04/10 01:47:27;;;;;;;;;;;10.10;99.90;;;;;;5103773;28;20003;-69
2023/04/10 01:49:54;;;;;;;;;;;10.10;99.90;;;;;;5104259;27;20388;-70
2023/04/10 01:52:22;;;;;;;;;;;10.00;99.90;;;;;;5107093;28;20305;-70
2023/04/10 01:54:49;;;;;;;;;;;10.00;99.90;;;;;;5109159;28;20032;-70
2023/04/10 01:57:16;;;;;;;;;;;10.00;99.90;;;;;;5111243;28;19930;-70
2023/04/10 01:59:43;;;;;;;;;;;10.00;99.90;;;;;;5103422;28;19930;-70
2023/04/10 02:02:10;;;;;;;;;;;10.00;99.90;;;;;;5102802;28;20027;-69
2023/04/10 02:04:39;;;;;;;;;;;9.90;99.90;;;;;;5103666;28;20042;-68
2023/04/10 02:07:08;;;;;;;;;;;10.00;99.90;;;;;;5107806;28;20047;-68
2023/04/10 02:09:41;;;;;;;;;;;10.00;99.90;;;;;;5104865;28;19928;-68
2023/04/10 02:12:10;;;;;;;;;;;10.00;99.90;;;;;;5105411;28;19997;-68
2023/04/10 02:14:38;;;;;;;;;;;10.00;99.90;;;;;;5106732;28;19930;-68
2023/04/10 02:17:06;;;;;;;;;;;9.80;99.90;;;;;;5102577;28;19954;-67
2023/04/10 02:19:39;;;;;;;;;;;10.00;99.90;;;;;;5103862;28;20001;-68
2023/04/10 02:22:11;;;;;;;;;;;10.00;99.90;;;;;;5104769;28;19953;-68
2023/04/10 02:24:39;;;;;;;;;;;9.90;99.90;;;;;;5105455;28;20436;-69
2023/04/10 02:27:06;;;;;;;;;;;9.90;99.90;;;;;;5106862;28;19927;-67
2023/04/10 02:29:33;;;;;;;;;;;9.90;99.90;;;;;;5105435;28;20010;-67
2023/04/10 02:32:01;;;;;;;;;;;10.10;99.90;;;;;;5107558;28;19959;-67
2023/04/10 02:34:27;;;;;;;;;;;9.90;99.90;;;;;;5108644;28;20282;-67
2023/04/10 02:36:54;;;;;;;;;;;10.10;99.90;;;;;;5102330;28;19931;-68
2023/04/10 02:39:22;;;;;;;;;;;10.00;99.90;;;;;;5101879;28;20306;-67
2023/04/10 02:41:49;;;;;;;;;;;10.00;99.90;;;;;;5111138;28;19930;-67
2023/04/10 02:44:16;;;;;;;;;;;10.10;99.90;;;;;;5106417;28;19924;-67
2023/04/10 02:46:42;;;;;;;;;;;10.00;99.90;;;;;;5105502;28;20001;-67
2023/04/10 02:49:09;;;;;;;;;;;10.00;99.90;;;;;;5097926;28;19924;-67
2023/04/10 02:51:36;;;;;;;;;;;10.00;99.90;;;;;;5100256;28;19923;-67
2023/04/10 02:54:02;;;;;;;;;;;10.00;99.90;;;;;;5107056;28;19927;-67
2023/04/10 02:56:33;;;;;;;;;;;10.00;99.90;;;;;;5105442;28;19963;-68
2023/04/10 02:59:00;;;;;;;;;;;9.90;99.90;;;;;;5103521;28;20290;-67
2023/04/10 03:01:27;;;;;;;;;;;9.90;99.90;;;;;;5109076;28;19971;-68
2023/04/10 03:03:53;;;;;;;;;;;10.00;99.90;;;;;;5111488;28;19930;-67
2023/04/10 03:06:20;;;;;;;;;;;10.00;99.90;;;;;;5109065;28;20344;-68
2023/04/10 03:08:47;;;;;;;;;;;10.00;99.90;;;;;;5102016;28;20454;-67
2023/04/10 03:11:14;;;;;;;;;;;9.90;99.90;;;;;;5104304;28;19998;-67
2023/04/10 03:13:42;;;;;;;;;;;9.90;99.90;;;;;;5110154;28;19924;-68
2023/04/10 03:16:08;;;;;;;;;;;10.00;99.90;;;;;;5104528;28;20409;-67
2023/04/10 03:18:35;;;;;;;;;;;10.00;99.90;;;;;;5108296;28;20478;-68
2023/04/10 03:21:02;;;;;;;;;;;10.00;99.90;;;;;;5107392;27;19924;-68
2023/04/10 03:23:29;;;;;;;;;;;10.00;99.90;;;;;;5100081;28;20020;-68
2023/04/10 03:26:04;;;;;;;;;;;10.00;99.90;;;;;;5109011;28;19928;-67
2023/04/10 03:28:35;;;;;;;;;;;10.00;99.90;;;;;;5111183;27;19924;-69
2023/04/10 03:31:03;;;;;;;;;;;10.00;99.90;;;;;;5111962;27;19931;-69
2023/04/10 03:33:30;;;;;;;;;;;9.70;99.90;;;;;;5109474;28;19955;-66
2023/04/10 03:35:57;;;;;;;;;;;10.00;99.90;;;;;;5109837;27;19924;-66
2023/04/10 03:38:24;;;;;;;;;;;9.90;99.90;;;;;;5109415;28;19923;-66
2023/04/10 03:40:51;;;;;;;;;;;10.00;99.90;;;;;;5112525;27;19936;-66
2023/04/10 03:43:17;;;;;;;;;;;10.00;99.90;;;;;;5109840;27;19923;-67
2023/04/10 03:45:44;;;;;;;;;;;10.00;99.90;;;;;;5112665;28;20658;-66
2023/04/10 03:48:12;;;;;;;;;;;9.90;99.90;;;;;;5110174;28;19923;-65
2023/04/10 03:50:39;;;;;;;;;;;9.80;99.90;;;;;;5112435;27;19965;-66
2023/04/10 03:53:06;;;;;;;;;;;9.80;99.90;;;;;;5107899;27;19924;-66
2023/04/10 03:55:32;;;;;;;;;;;9.80;99.90;;;;;;5112271;28;19930;-66
2023/04/10 03:57:59;;;;;;;;;;;9.70;99.90;;;;;;5111816;28;20446;-66
2023/04/10 04:00:26;;;;;;;;;;;9.40;99.90;;;;;;5111326;28;20481;-66
2023/04/10 04:02:54;;;;;;;;;;;9.20;99.90;;;;;;5105242;27;19923;-66
2023/04/10 04:05:22;;;;;;;;;;;9.00;99.90;;;;;;5109952;27;19930;-67
2023/04/10 04:07:48;;;;;;;;;;;8.80;99.90;;;;;;5110844;28;19932;-66
2023/04/10 04:10:15;;;;;;;;;;;8.70;99.90;;;;;;5108975;28;20019;-66
2023/04/10 04:12:42;;;;;;;;;;;8.50;99.90;;;;;;5105246;27;20018;-66
2023/04/10 04:15:09;;;;;;;;;;;8.50;99.90;;;;;;5110083;28;20010;-66
2023/04/10 04:17:35;;;;;;;;;;;8.40;99.90;;;;;;5106132;28;20426;-66
2023/04/10 04:20:02;;;;;;;;;;;8.30;99.90;;;;;;5110712;28;20421;-66
2023/04/10 04:22:30;;;;;;;;;;;8.30;99.90;;;;;;5107759;28;20434;-66
2023/04/10 04:24:57;;;;;;;;;;;8.30;99.90;;;;;;5104364;28;19924;-66
2023/04/10 04:27:23;;;;;;;;;;;8.30;99.90;;;;;;5109133;27;20298;-66
2023/04/10 04:29:50;;;;;;;;;;;8.30;99.90;;;;;;5109274;28;20841;-66
2023/04/10 04:32:17;;;;;;;;;;;8.30;99.90;;;;;;5110273;27;19932;-66
2023/04/10 04:34:43;;;;;;;;;;;8.30;99.90;;;;;;5108789;27;19924;-66
2023/04/10 04:37:10;;;;;;;;;;;8.40;99.90;;;;;;5108746;27;20011;-66
2023/04/10 04:39:38;;;;;;;;;;;8.40;99.90;;;;;;5109917;28;20015;-67
2023/04/10 04:42:06;;;;;;;;;;;8.30;99.90;;;;;;5108541;28;20412;-67
2023/04/10 04:44:33;;;;;;;;;;;8.30;99.90;;;;;;5102494;28;20025;-68
2023/04/10 04:46:59;;;;;;;;;;;8.30;99.90;;;;;;5109179;28;20015;-67
2023/04/10 04:49:26;;;;;;;;;;;8.40;99.90;;;;;;5108776;28;20458;-67
2023/04/10 04:51:53;;;;;;;;;;;8.30;99.90;;;;;;5107454;27;19924;-67
2023/04/10 04:54:19;;;;;;;;;;;8.30;99.90;;;;;;5108717;28;19924;-67
2023/04/10 04:56:47;;;;;;;;;;;8.30;99.90;;;;;;5108772;27;20014;-67
2023/04/10 04:59:14;;;;;;;;;;;8.20;99.90;;;;;;5106451;28;19928;-66
2023/04/10 05:01:41;;;;;;;;;;;8.20;99.90;;;;;;5109458;28;20348;-67
2023/04/10 05:04:08;;;;;;;;;;;8.20;99.90;;;;;;5108285;27;19930;-67
2023/04/10 05:06:34;;;;;;;;;;;8.20;99.90;;;;;;5106650;28;20438;-67
2023/04/10 05:09:01;;;;;;;;;;;8.20;99.90;;;;;;5104252;27;19977;-67
2023/04/10 05:11:28;;;;;;;;;;;8.10;99.90;;;;;;5105517;28;19966;-66
2023/04/10 05:13:56;;;;;;;;;;;8.10;99.90;;;;;;5103375;28;19930;-65
2023/04/10 05:16:22;;;;;;;;;;;8.10;99.90;;;;;;5106800;28;20292;-65
2023/04/10 05:18:49;;;;;;;;;;;8.10;99.90;;;;;;5103261;28;19942;-65
2023/04/10 05:21:16;;;;;;;;;;;8.20;99.90;;;;;;5109488;28;20011;-67
2023/04/10 05:23:42;;;;;;;;;;;8.20;99.90;;;;;;5101402;28;19932;-67
2023/04/10 05:26:09;;;;;;;;;;;8.30;99.90;;;;;;5106920;28;19931;-68
2023/04/10 05:28:36;;;;;;;;;;;8.30;99.90;;;;;;5107833;28;19924;-67
2023/04/10 05:31:04;;;;;;;;;;;8.40;99.90;;;;;;5107809;28;20298;-67
2023/04/10 05:33:31;;;;;;;;;;;8.40;99.90;;;;;;5110657;28;20027;-68
2023/04/10 05:35:57;;;;;;;;;;;8.30;99.90;;;;;;5105929;28;19930;-68
2023/04/10 05:38:24;;;;;;;;;;;8.40;99.90;;;;;;5107334;28;20398;-68
2023/04/10 05:40:51;;;;;;;;;;;8.40;99.90;;;;;;5103143;28;20370;-69
2023/04/10 05:43:18;;;;;;;;;;;8.50;99.90;;;;;;5098538;28;19959;-69
2023/04/10 05:45:44;;;;;;;;;;;8.50;99.90;;;;;;5109449;28;19924;-68
2023/04/10 05:48:12;;;;;;;;;;;8.50;99.90;;;;;;5107861;28;19931;-68
2023/04/10 05:50:39;;;;;;;;;;;8.60;99.90;;;;;;5105772;28;19924;-69
2023/04/10 05:53:06;;;;;;;;;;;8.70;99.90;;;;;;5109928;27;20011;-68
2023/04/10 05:55:32;;;;;;;;;;;8.70;99.90;;;;;;5105425;28;20370;-69
2023/04/10 05:57:59;;;;;;;;;;;8.70;99.90;;;;;;5103194;28;19930;-68
2023/04/10 06:00:26;;;;;;;;;;;8.70;99.90;;;;;;5102449;28;20382;-68
2023/04/10 06:02:52;;;;;;;;;;;8.70;99.90;;;;;;5109967;28;19946;-69
2023/04/10 06:05:21;;;;;;;;;;;8.80;99.90;;;;;;5108984;28;20366;-69
2023/04/10 06:07:47;;;;;;;;;;;8.80;99.90;;;;;;5101274;28;19951;-69
2023/04/10 06:10:14;;;;;;;;;;;8.90;99.90;;;;;;5107644;28;19971;-69
2023/04/10 06:12:41;;;;;;;;;;;8.90;99.90;;;;;;5106719;28;19924;-69
2023/04/10 06:15:08;;;;;;;;;;;9.10;99.90;;;;;;5096516;28;20022;-69
2023/04/10 06:17:35;;;;;;;;;;;9.20;99.90;;;;;;5099576;28;20461;-69
2023/04/10 06:20:03;;;;;;;;;;;9.30;99.90;;;;;;5102976;28;19925;-69
2023/04/10 06:22:31;;;;;;;;;;;9.50;99.90;;;;;;5105378;28;19924;-69
2023/04/10 06:24:58;;;;;;;;;;;9.50;99.90;;;;;;5103937;28;19930;-69
2023/04/10 06:27:24;;;;;;;;;;;9.70;99.90;;;;;;5099731;28;20310;-67
2023/04/10 06:29:51;;;;;;;;;;;9.80;99.90;;;;;;5102521;28;19924;-68
2023/04/10 06:32:18;;;;;;;;;;;9.90;99.90;;;;;;5099372;28;19925;-67
2023/04/10 06:34:45;;;;;;;;;;;9.90;99.90;;;;;;5100361;28;19923;-68
2023/04/10 06:37:11;;;;;;;;;;;10.00;99.90;;;;;;5105906;28;19931;-69
2023/04/10 06:39:40;;;;;;;;;;;10.10;99.90;;;;;;5106751;28;19938;-67
2023/04/10 06:42:06;;;;;;;;;;;10.20;99.90;;;;;;5102517;28;19932;-68
2023/04/10 06:44:33;;;;;;;;;;;10.30;99.90;;;;;;5102449;28;19928;-68
2023/04/10 06:47:00;;;;;;;;;;;10.40;99.90;;;;;;5107331;28;19961;-68
2023/04/10 06:49:26;;;;;;;;;;;10.40;99.90;;;;;;5105111;28;19994;-68
2023/04/10 06:51:53;;;;;;;;;;;10.60;99.90;;;;;;5108999;28;20329;-68
2023/04/10 06:54:20;;;;;;;;;;;10.70;99.90;;;;;;5110341;28;19929;-68
2023/04/10 06:56:48;;;;;;;;;;;10.80;99.90;;;;;;5109563;27;20026;-67
2023/04/10 06:59:15;;;;;;;;;;;10.80;99.90;;;;;;5107726;28;20002;-68
2023/04/10 07:01:41;;;;;;;;;;;10.90;99.90;;;;;;5113128;28;19924;-68
2023/04/10 07:04:08;;;;;;;;;;;11.00;99.90;;;;;;5109129;28;20290;-68
2023/04/10 07:06:35;;;;;;;;;;;11.10;99.90;;;;;;5108846;27;20354;-68
2023/04/10 07:09:02;;;;;;;;;;;11.20;99.90;;;;;;5108087;28;19924;-68
2023/04/10 07:11:28;;;;;;;;;;;11.30;99.90;;;;;;5107898;28;20302;-68
2023/04/10 07:13:57;;;;;;;;;;;11.40;99.90;;;;;;5108643;28;19969;-69
2023/04/10 07:16:24;;;;;;;;;;;11.50;99.90;;;;;;5110173;27;19987;-69
2023/04/10 07:18:51;;;;;;;;;;;11.60;99.90;;;;;;5113736;28;19964;-69
2023/04/10 07:21:18;;;;;;;;;;;11.70;99.90;;;;;;5109485;27;20023;-68
2023/04/10 07:23:44;;;;;;;;;;;11.70;99.90;;;;;;5111612;28;20034;-68
2023/04/10 07:26:11;;;;;;;;;;;11.80;99.90;;;;;;5113365;28;20007;-69
2023/04/10 07:28:38;;;;;;;;;;;11.80;99.90;;;;;;5111577;28;19928;-68
2023/04/10 07:31:07;;;;;;;;;;;12.00;99.90;;;;;;5114693;28;19928;-68
2023/04/10 07:33:35;;;;;;;;;;;12.00;99.90;;;;;;5108489;28;20301;-68
2023/04/10 07:36:02;;;;;;;;;;;12.10;99.90;;;;;;5111491;28;19924;-69
2023/04/10 07:38:29;;;;;;;;;;;12.30;99.90;;;;;;5107367;27;19923;-69
2023/04/10 07:40:59;;;;;;;;;;;12.30;99.90;;;;;;5101342;27;19924;-69
2023/04/10 07:43:26;;;;;;;;;;;12.30;99.90;;;;;;5102027;22;19978;-69
2023/04/10 07:45:52;;;;;;;;;;;12.30;99.90;;;;;;5085960;28;19928;-69
2023/04/10 07:48:20;;;;;;;;;;;12.20;99.90;;;;;;5083821;28;19924;-69
2023/04/10 07:50:47;;;;;;;;;;;12.30;99.90;;;;;;5088061;28;19931;-69
2023/04/10 07:53:14;;;;;;;;;;;12.30;99.90;;;;;;5078143;28;19928;-69
2023/04/10 07:55:42;;;;;;;;;;;12.40;99.90;;;;;;5087333;28;19952;-68
2023/04/10 07:58:09;;;;;;;;;;;12.40;99.90;;;;;;5080783;28;19927;-68
2023/04/10 08:00:36;;;;;;;;;;;12.50;99.90;;;;;;5086052;28;20019;-71
2023/04/10 08:03:04;;;;;;;;;;;12.70;99.90;;;;;;5085124;28;20368;-70
2023/04/10 08:05:32;;;;;;;;;;;12.80;99.90;;;;;;5087592;28;19971;-72
2023/04/10 08:07:59;;;;;;;;;;;13.00;99.90;;;;;;5083370;28;19931;-70
2023/04/10 08:10:26;;;;;;;;;;;13.20;99.90;;;;;;5073665;28;20023;-68
2023/04/10 08:12:52;;;;;;;;;;;13.30;99.90;;;;;;5088211;28;19981;-69
2023/04/10 08:15:19;;;;;;;;;;;13.70;99.90;;;;;;5084375;28;20018;-69
2023/04/10 08:17:46;;;;;;;;;;;13.90;99.30;;;;;;5088714;28;20055;-70
2023/04/10 08:20:13;;;;;;;;;;;14.00;99.40;;;;;;5091439;28;19924;-68
2023/04/10 08:22:41;;;;;;;;;;;14.00;98.60;;;;;;5089137;28;19924;-69
2023/04/10 08:25:08;;;;;;;;;;;13.90;98.60;;;;;;5083999;28;20287;-69
2023/04/10 08:27:34;;;;;;;;;;;13.60;98.70;;;;;;5083469;28;20287;-69
2023/04/10 08:30:01;;;;;;;;;;;13.50;98.60;;;;;;5080709;28;20359;-70
2023/04/10 08:32:29;;;;;;;;;;;13.30;99.30;;;;;;5081736;28;20300;-69
2023/04/10 08:34:56;;;;;;;;;;;13.60;99.70;;;;;;5082306;28;19924;-69
2023/04/10 08:37:23;;;;;;;;;;;13.50;99.30;;;;;;5082946;28;19932;-68
2023/04/10 08:39:51;;;;;;;;;;;13.50;99.10;;;;;;5082024;28;19931;-69
2023/04/10 08:42:17;;;;;;;;;;;13.60;99.40;;;;;;5081540;28;20011;-69
2023/04/10 08:44:45;;;;;;;;;;;13.70;99.60;;;;;;5091240;28;20398;-68
2023/04/10 08:47:13;;;;;;;;;;;13.80;99.70;;;;;;5085141;28;19979;-68
2023/04/10 08:49:41;;;;;;;;;;;13.80;99.10;;;;;;5086295;28;19930;-69
2023/04/10 08:52:08;;;;;;;;;;;13.70;98.90;;;;;;5091696;28;19955;-68
2023/04/10 08:54:38;;;;;;;;;;;13.60;98.60;;;;;;5086578;28;19928;-68
2023/04/10 08:57:06;;;;;;;;;;;13.60;98.80;;;;;;5088817;28;19928;-69
2023/04/10 08:59:33;;;;;;;;;;;13.50;99.20;;;;;;5082986;28;19924;-69
2023/04/10 09:02:00;;;;;;;;;;;13.50;99.00;;;;;;5079216;28;20287;-69
2023/04/10 09:04:27;;;;;;;;;;;13.50;99.40;;;;;;5089282;28;19924;-69
2023/04/10 09:06:53;;;;;;;;;;;13.60;99.70;;;;;;5085104;28;19978;-68
2023/04/10 09:09:20;;;;;;;;;;;13.90;99.20;;;;;;5090308;28;19930;-69
2023/04/10 09:11:59;;;;;;;;;;;14.10;98.80;;;;;;5091299;28;19924;-68
2023/04/10 09:14:27;;;;;;;;;;;14.20;98.30;;;;;;5085685;28;19935;-68
2023/04/10 09:17:10;;;;;;;;;;;14.30;98.50;;;;;;5087900;28;20367;-68
2023/04/10 09:19:37;;;;;;;;;;;14.30;98.20;;;;;;5086144;28;19925;-68
2023/04/10 09:22:03;;;;;;;;;;;14.20;97.80;;;;;;5086517;28;19932;-68
2023/04/10 09:24:30;;;;;;;;;;;14.10;98.50;;;;;;5088045;28;20018;-68
2023/04/10 09:26:57;;;;;;;;;;;14.40;98.10;;;;;;5088702;28;19930;-68
2023/04/10 09:29:25;;;;;;;;;;;14.50;98.00;;;;;;5088724;28;19924;-69
2023/04/10 09:31:53;;;;;;;;;;;14.50;98.30;;;;;;5087431;28;19943;-69
2023/04/10 09:34:21;;;;;;;;;;;14.60;97.60;;;;;;5088741;28;20478;-69
2023/04/10 09:36:53;;;;;;;;;;;14.90;97.50;;;;;;5089206;28;19924;-69
2023/04/10 09:39:20;;;;;;;;;;;15.00;96.60;;;;;;5082551;28;19928;-69
2023/04/10 09:41:47;;;;;;;;;;;15.00;95.00;;;;;;5086667;28;19942;-69
2023/04/10 09:44:14;;;;;;;;;;;15.10;94.70;;;;;;5084900;28;19930;-67
2023/04/10 09:46:41;;;;;;;;;;;15.10;94.30;;;;;;5085169;28;19924;-69
2023/04/10 09:49:09;;;;;;;;;;;15.40;94.90;;;;;;5090365;28;20035;-69
2023/04/10 09:51:36;;;;;;;;;;;15.10;95.90;;;;;;5083408;28;19932;-68
2023/04/10 09:54:03;;;;;;;;;;;15.10;95.00;;;;;;5088300;28;20375;-68
2023/04/10 09:56:30;;;;;;;;;;;15.10;94.70;;;;;;5088770;28;19924;-68
2023/04/10 09:58:57;;;;;;;;;;;15.20;94.90;;;;;;5091200;28;19998;-69
2023/04/10 10:01:25;;;;;;;;;;;15.40;95.20;;;;;;5079677;28;20402;-67
2023/04/10 10:03:53;;;;;;;;;;;15.50;94.40;;;;;;5088815;28;19924;-68
2023/04/10 10:06:22;;;;;;;;;;;15.80;94.10;;;;;;5090911;28;19931;-67
2023/04/10 10:08:49;;;;;;;;;;;16.10;94.50;;;;;;5087313;28;19924;-69
2023/04/10 10:11:17;;;;;;;;;;;16.20;93.40;;;;;;5087027;28;20421;-67
2023/04/10 10:13:47;;;;;;;;;;;16.30;93.30;;;;;;5083607;28;19933;-69
2023/04/10 10:16:16;;;;;;;;;;;16.40;93.30;;;;;;5088781;28;21540;-67
2023/04/10 10:18:44;;;;;;;;;;;16.50;92.70;;;;;;5089049;28;19930;-68
2023/04/10 10:21:12;;;;;;;;;;;16.40;93.00;;;;;;5088375;28;19995;-68
2023/04/10 10:23:42;;;;;;;;;;;16.20;92.50;;;;;;5087844;28;20010;-68
2023/04/10 10:26:09;;;;;;;;;;;16.10;93.60;;;;;;5083888;28;19928;-68
2023/04/10 10:28:36;;;;;;;;;;;16.30;93.30;;;;;;5095195;28;19971;-69
2023/04/10 10:31:03;;;;;;;;;;;16.20;93.30;;;;;;5092978;28;20003;-68
2023/04/10 10:33:30;;;;;;;;;;;16.30;93.00;;;;;;5090777;28;20015;-68
2023/04/10 10:35:58;;;;;;;;;;;16.40;93.20;;;;;;5094967;28;20033;-68
2023/04/10 10:38:25;;;;;;;;;;;16.40;92.50;;;;;;5094117;28;19930;-69
2023/04/10 10:40:55;;;;;;;;;;;16.50;93.00;;;;;;5092926;28;19935;-69
2023/04/10 10:43:25;;;;;;;;;;;16.50;93.80;;;;;;5085648;28;19924;-69
2023/04/10 10:45:54;;;;;;;;;;;16.40;93.50;;;;;;5093732;28;19956;-68
2023/04/10 10:48:21;;;;;;;;;;;16.30;94.50;;;;;;5092733;28;19966;-67
2023/04/10 10:50:52;;;;;;;;;;;16.20;93.80;;;;;;5091676;28;20395;-69
2023/04/10 10:53:34;;;;;;;;;;;16.10;94.80;;;;;;5090188;28;20337;-68
2023/04/10 10:56:16;;;;;;;;;;;16.00;94.70;;;;;;5088548;28;20022;-69
2023/04/10 10:58:48;;;;;;;;;;;16.20;95.30;;;;;;5091006;28;20276;-69
2023/04/10 11:01:15;;;;;;;;;;;16.30;95.00;;;;;;5088993;28;19924;-70
2023/04/10 11:03:43;;;;;;;;;;;16.50;93.80;;;;;;5093994;28;19931;-70
2023/04/10 11:06:11;;;;;;;;;;;16.60;92.80;;;;;;5093880;28;19924;-71
2023/04/10 11:08:45;;;;;;;;;;;16.30;93.00;;;;;;5089979;28;20354;-71
2023/04/10 11:11:16;;;;;;;;;;;16.60;93.80;;;;;;5092354;28;20395;-70
2023/04/10 11:14:03;;;;;;;;;;;16.50;92.50;;;;;;5090766;28;20006;-71
2023/04/10 11:16:44;;;;;;;;;;;16.50;92.90;;;;;;5095120;28;19924;-70
2023/04/10 11:19:12;;;;;;;;;;;16.50;92.80;;;;;;5090097;28;20375;-70
2023/04/10 11:21:54;;;;;;;;;;;16.60;92.80;;;;;;5089888;28;19924;-71
2023/04/10 11:24:21;;;;;;;;;;;16.60;92.60;;;;;;5088672;28;20031;-71
2023/04/10 11:26:47;;;;;;;;;;;16.70;92.60;;;;;;5085246;28;19925;-71
2023/04/10 11:29:33;;;;;;;;;;;16.60;92.00;;;;;;5087213;28;20026;-71
2023/04/10 11:32:01;;;;;;;;;;;16.80;92.00;;;;;;5092820;28;20391;-71
2023/04/10 11:34:29;;;;;;;;;;;16.70;92.10;;;;;;5092140;28;20438;-71
2023/04/10 11:36:56;;;;;;;;;;;16.80;92.00;;;;;;5086774;28;20462;-70
2023/04/10 11:39:23;;;;;;;;;;;16.60;92.50;;;;;;5087136;28;19932;-71
2023/04/10 11:41:50;;;;;;;;;;;16.80;92.40;;;;;;5088509;28;19986;-70
2023/04/10 11:44:19;;;;;;;;;;;16.70;92.40;;;;;;5090687;28;19928;-70
2023/04/10 11:46:46;;;;;;;;;;;16.60;92.10;;;;;;5091459;28;19982;-70
2023/04/10 11:49:20;;;;;;;;;;;16.70;92.50;;;;;;5090561;28;19930;-70
2023/04/10 11:51:47;;;;;;;;;;;16.80;91.60;;;;;;5084171;28;19932;-70
2023/04/10 11:54:15;;;;;;;;;;;16.70;91.80;;;;;;5082501;28;19928;-70
2023/04/10 11:56:43;;;;;;;;;;;16.60;92.00;;;;;;5079529;28;19950;-70
2023/04/10 11:59:12;;;;;;;;;;;16.60;92.00;;;;;;5080734;28;20003;-70
2023/04/10 12:01:39;;;;;;;;;;;16.70;92.10;;;;;;5081167;28;19924;-70
2023/04/10 12:04:13;;;;;;;;;;;16.50;92.70;;;;;;5084754;28;19932;-69
2023/04/10 12:06:43;;;;;;;;;;;16.50;92.30;;;;;;5088369;28;19924;-70
2023/04/10 12:09:13;;;;;;;;;;;16.60;92.30;;;;;;5083156;28;19924;-70
2023/04/10 12:11:39;;;;;;;;;;;16.60;91.90;;;;;;5086202;28;19934;-70
2023/04/10 12:14:06;;;;;;;;;;;16.50;92.30;;;;;;5089086;28;19924;-70
2023/04/10 12:16:40;;;;;;;;;;;16.50;92.30;;;;;;5086643;28;19935;-70
2023/04/10 12:19:07;;;;;;;;;;;16.40;92.90;;;;;;5087690;28;20419;-70
2023/04/10 12:21:35;;;;;;;;;;;16.40;93.10;;;;;;5089269;28;19982;-70
2023/04/10 12:24:04;;;;;;;;;;;16.40;92.90;;;;;;5086675;28;19932;-70
2023/04/10 12:26:31;;;;;;;;;;;16.40;92.50;;;;;;5086992;28;19924;-69
2023/04/10 12:28:58;;;;;;;;;;;16.30;92.50;;;;;;5087125;28;19956;-68
2023/04/10 12:31:28;;;;;;;;;;;16.30;93.00;;;;;;5086054;22;19928;-69
2023/04/10 12:33:59;;;;;;;;;;;16.20;94.60;;;;;;5090118;28;19924;-70
2023/04/10 12:36:29;;;;;;;;;;;16.10;96.10;;;;;;5088394;28;19931;-69
2023/04/10 12:38:56;;;;;;;;;;;16.10;97.90;;;;;;5080873;28;20011;-67
2023/04/10 12:41:25;;;;;;;;;;;15.90;98.90;;;;;;5094394;22;19932;-69
2023/04/10 12:43:52;;;;;;;;;;;15.60;98.60;;;;;;5090811;28;19924;-70
2023/04/10 12:46:24;;;;;;;;;;;15.70;99.90;;;;;;5089273;28;19924;-67
2023/04/10 12:48:51;;;;;;;;;;;15.50;99.90;;;;;;5089545;22;19932;-68
2023/04/10 12:51:19;;;;;;;;;;;15.40;99.90;;;;;;5063643;28;19931;-68
2023/04/10 12:53:46;;;;;;;;;;;15.50;99.90;;;;;;5065775;28;20133;-69
2023/04/10 12:56:13;;;;;;;;;;;15.40;99.90;;;;;;5066721;28;19978;-70
2023/04/10 12:58:42;;;;;;;;;;;15.50;99.90;;;;;;5056572;28;20439;-69
2023/04/10 13:01:09;;;;;;;;;;;15.50;99.90;;;;;;5061536;28;19929;-67
2023/04/10 13:03:36;;;;;;;;;;;15.40;99.90;;;;;;5062782;28;19978;-66
2023/04/10 13:06:03;;;;;;;;;;;15.50;99.90;;;;;;5060236;28;19956;-68
2023/04/10 13:08:31;;;;;;;;;;;15.30;99.90;;;;;;5069392;28;20012;-71
2023/04/10 13:11:01;;;;;;;;;;;15.40;99.90;;;;;;5067752;28;19946;-72
2023/04/10 13:13:28;;;;;;;;;;;15.30;99.90;;;;;;5081093;28;19932;-70
2023/04/10 13:15:56;;;;;;;;;;;15.40;99.90;;;;;;5064628;28;19924;-69
2023/04/10 13:18:23;;;;;;;;;;;15.20;99.90;;;;;;5063237;28;19931;-70
2023/04/10 13:20:50;;;;;;;;;;;15.20;99.90;;;;;;5068965;28;20306;-69
2023/04/10 13:23:16;;;;;;;;;;;15.20;99.90;;;;;;5064554;28;19928;-70
2023/04/10 13:25:43;;;;;;;;;;;15.20;99.90;;;;;;5060005;28;20410;-70
2023/04/10 13:28:10;;;;;;;;;;;15.10;99.90;;;;;;5071754;28;19968;-70
2023/04/10 13:30:38;;;;;;;;;;;15.20;99.90;;;;;;5066074;28;19951;-71
2023/04/10 13:33:06;;;;;;;;;;;15.20;99.90;;;;;;5065564;28;20005;-71
2023/04/10 13:35:32;;;;;;;;;;;15.30;99.90;;;;;;5066174;28;19925;-71
2023/04/10 13:38:00;;;;;;;;;;;15.40;99.90;;;;;;5065849;28;19939;-71
2023/04/10 13:40:26;;;;;;;;;;;15.60;99.90;;;;;;5061394;28;19932;-70
2023/04/10 13:42:53;;;;;;;;;;;15.60;99.90;;;;;;5079436;28;19984;-71
2023/04/10 13:45:20;;;;;;;;;;;15.50;99.90;;;;;;5071504;28;19930;-68
2023/04/10 13:47:46;;;;;;;;;;;15.50;99.90;;;;;;5070715;28;20365;-71
2023/04/10 13:50:14;;;;;;;;;;;15.50;99.90;;;;;;5066749;28;20345;-71
2023/04/10 13:52:41;;;;;;;;;;;15.60;99.90;;;;;;5078756;28;19975;-72
2023/04/10 13:55:08;;;;;;;;;;;15.60;99.90;;;;;;5064283;28;20306;-71
2023/04/10 13:57:35;;;;;;;;;;;15.70;99.90;;;;;;5082090;28;20097;-71
2023/04/10 14:00:03;;;;;;;;;;;15.30;99.90;;;;;;5071888;28;20478;-72
2023/04/10 14:02:30;;;;;;;;;;;16.00;99.90;;;;;;5070743;28;19924;-71
2023/04/10 14:04:56;;;;;;;;;;;16.10;99.90;;;;;;5073956;28;20204;-71
2023/04/10 14:07:24;;;;;;;;;;;16.20;99.90;;;;;;5065189;28;19951;-71
2023/04/10 14:09:51;;;;;;;;;;;16.20;99.90;;;;;;5066244;28;21456;-71
2023/04/10 14:12:18;;;;;;;;;;;16.20;99.90;;;;;;5070780;28;19932;-70
2023/04/10 14:14:47;;;;;;;;;;;16.30;99.90;;;;;;5062480;28;24148;-71
2023/04/10 14:17:13;;;;;;;;;;;16.40;99.90;;;;;;5073795;28;20379;-71
2023/04/10 14:19:41;;;;;;;;;;;16.30;99.90;;;;;;5063820;28;19999;-71
2023/04/10 14:22:08;;;;;;;;;;;16.20;99.90;;;;;;5069414;28;19967;-71
2023/04/10 14:24:36;;;;;;;;;;;16.00;99.90;;;;;;5062449;28;20020;-71